sensor_id;sensor_type;location;lat;lon;timestamp;P1;durP1;ratioP1;P2;durP2;ratioP2
61897;SDS011;47850;50.274;18.908;2022-09-21T00:00:52;18.30;;;8.80;;
61897;SDS011;47850;50.274;18.908;2022-09-21T00:03:18;12.50;;;7.70;;
61897;SDS011;47850;50.274;18.908;2022-09-21T00:05:44;14.40;;;7.90;;
61897;SDS011;47850;50.274;18.908;2022-09-21T00:08:11;14.90;;;8.30;;
61897;SDS011;47850;50.274;18.908;2022-09-21T00:10:38;12.80;;;7.30;;
61897;SDS011;47850;50.274;18.908;2022-09-21T00:13:04;14.60;;;7.50;;
61897;SDS011;47850;50.274;18.908;2022-09-21T00:15:32;13.00;;;7.80;;
61897;SDS011;47850;50.274;18.908;2022-09-21T00:17:58;13.30;;;8.20;;
61897;SDS011;47850;50.274;18.908;2022-09-21T00:20:24;12.60;;;7.80;;
61897;SDS011;47850;50.274;18.908;2022-09-21T00:22:52;11.30;;;7.20;;
61897;SDS011;47850;50.274;18.908;2022-09-21T00:25:18;15.10;;;8.20;;
61897;SDS011;47850;50.274;18.908;2022-09-21T00:27:45;13.40;;;6.90;;
61897;SDS011;47850;50.274;18.908;2022-09-21T00:30:15;15.00;;;8.10;;
61897;SDS011;47850;50.274;18.908;2022-09-21T00:32:42;9.70;;;5.70;;
61897;SDS011;47850;50.274;18.908;2022-09-21T00:35:08;9.90;;;6.70;;
61897;SDS011;47850;50.274;18.908;2022-09-21T00:37:34;11.10;;;7.10;;
61897;SDS011;47850;50.274;18.908;2022-09-21T00:40:00;12.00;;;7.00;;
61897;SDS011;47850;50.274;18.908;2022-09-21T00:42:30;10.80;;;6.80;;
61897;SDS011;47850;50.274;18.908;2022-09-21T00:44:58;9.00;;;6.60;;
61897;SDS011;47850;50.274;18.908;2022-09-21T00:47:25;10.30;;;6.60;;
61897;SDS011;47850;50.274;18.908;2022-09-21T00:49:55;9.70;;;6.30;;
61897;SDS011;47850;50.274;18.908;2022-09-21T00:52:24;12.70;;;7.00;;
61897;SDS011;47850;50.274;18.908;2022-09-21T00:54:55;12.30;;;7.30;;
61897;SDS011;47850;50.274;18.908;2022-09-21T00:57:26;14.00;;;6.70;;
61897;SDS011;47850;50.274;18.908;2022-09-21T00:59:56;8.70;;;5.40;;
61897;SDS011;47850;50.274;18.908;2022-09-21T01:02:26;12.20;;;6.80;;
61897;SDS011;47850;50.274;18.908;2022-09-21T01:04:52;11.10;;;7.10;;
61897;SDS011;47850;50.274;18.908;2022-09-21T01:07:21;8.40;;;5.80;;
61897;SDS011;47850;50.274;18.908;2022-09-21T01:09:51;14.30;;;7.10;;
61897;SDS011;47850;50.274;18.908;2022-09-21T01:12:24;12.10;;;7.20;;
61897;SDS011;47850;50.274;18.908;2022-09-21T01:15:28;12.50;;;7.80;;
61897;SDS011;47850;50.274;18.908;2022-09-21T01:18:12;7.50;;;5.90;;
61897;SDS011;47850;50.274;18.908;2022-09-21T01:23:43;12.90;;;7.70;;
61897;SDS011;47850;50.274;18.908;2022-09-21T01:29:12;10.50;;;7.30;;
61897;SDS011;47850;50.274;18.908;2022-09-21T01:31:54;11.80;;;7.70;;
61897;SDS011;47850;50.274;18.908;2022-09-21T01:34:45;7.50;;;6.20;;
61897;SDS011;47850;50.274;18.908;2022-09-21T01:37:20;10.60;;;6.70;;
61897;SDS011;47850;50.274;18.908;2022-09-21T01:39:52;12.90;;;7.00;;
61897;SDS011;47850;50.274;18.908;2022-09-21T01:42:24;10.60;;;7.50;;
61897;SDS011;47850;50.274;18.908;2022-09-21T01:44:52;12.00;;;7.70;;
61897;SDS011;47850;50.274;18.908;2022-09-21T01:47:22;12.30;;;7.20;;
61897;SDS011;47850;50.274;18.908;2022-09-21T01:49:51;14.40;;;8.30;;
61897;SDS011;47850;50.274;18.908;2022-09-21T01:55:22;15.60;;;8.70;;
61897;SDS011;47850;50.274;18.908;2022-09-21T02:00:41;18.70;;;9.60;;
61897;SDS011;47850;50.274;18.908;2022-09-21T02:03:25;13.30;;;9.00;;
61897;SDS011;47850;50.274;18.908;2022-09-21T02:05:58;14.40;;;7.90;;
61897;SDS011;47850;50.274;18.908;2022-09-21T02:08:25;15.80;;;9.00;;
61897;SDS011;47850;50.274;18.908;2022-09-21T02:10:53;13.50;;;7.80;;
61897;SDS011;47850;50.274;18.908;2022-09-21T02:13:19;14.30;;;9.30;;
61897;SDS011;47850;50.274;18.908;2022-09-21T02:18:20;11.80;;;7.20;;
61897;SDS011;47850;50.274;18.908;2022-09-21T02:21:18;15.80;;;9.20;;
61897;SDS011;47850;50.274;18.908;2022-09-21T02:24:18;10.90;;;7.80;;
61897;SDS011;47850;50.274;18.908;2022-09-21T02:26:41;10.60;;;7.70;;
61897;SDS011;47850;50.274;18.908;2022-09-21T02:29:19;10.40;;;7.70;;
61897;SDS011;47850;50.274;18.908;2022-09-21T02:32:05;12.50;;;8.10;;
61897;SDS011;47850;50.274;18.908;2022-09-21T02:43:20;9.30;;;7.40;;
61897;SDS011;47850;50.274;18.908;2022-09-21T02:45:51;12.80;;;8.50;;
61897;SDS011;47850;50.274;18.908;2022-09-21T02:49:04;11.60;;;8.20;;
61897;SDS011;47850;50.274;18.908;2022-09-21T02:51:15;10.70;;;8.40;;
61897;SDS011;47850;50.274;18.908;2022-09-21T02:53:46;13.40;;;9.20;;
61897;SDS011;47850;50.274;18.908;2022-09-21T02:56:15;14.00;;;7.90;;
61897;SDS011;47850;50.274;18.908;2022-09-21T02:58:44;12.90;;;8.10;;
61897;SDS011;47850;50.274;18.908;2022-09-21T03:01:21;14.10;;;8.90;;
61897;SDS011;47850;50.274;18.908;2022-09-21T03:03:50;13.20;;;9.60;;
61897;SDS011;47850;50.274;18.908;2022-09-21T03:06:16;11.20;;;6.80;;
61897;SDS011;47850;50.274;18.908;2022-09-21T03:08:42;14.10;;;9.90;;
61897;SDS011;47850;50.274;18.908;2022-09-21T03:11:08;11.10;;;8.30;;
61897;SDS011;47850;50.274;18.908;2022-09-21T03:13:35;15.70;;;10.90;;
61897;SDS011;47850;50.274;18.908;2022-09-21T03:16:02;9.50;;;7.40;;
61897;SDS011;47850;50.274;18.908;2022-09-21T03:20:57;11.20;;;6.60;;
61897;SDS011;47850;50.274;18.908;2022-09-21T03:23:23;13.50;;;9.80;;
61897;SDS011;47850;50.274;18.908;2022-09-21T03:25:50;18.00;;;9.10;;
61897;SDS011;47850;50.274;18.908;2022-09-21T03:28:19;16.10;;;10.80;;
61897;SDS011;47850;50.274;18.908;2022-09-21T03:30:49;15.80;;;10.00;;
61897;SDS011;47850;50.274;18.908;2022-09-21T03:33:16;15.10;;;11.20;;
61897;SDS011;47850;50.274;18.908;2022-09-21T03:35:43;14.70;;;11.50;;
61897;SDS011;47850;50.274;18.908;2022-09-21T03:38:10;14.40;;;9.10;;
61897;SDS011;47850;50.274;18.908;2022-09-21T03:40:36;16.70;;;11.70;;
61897;SDS011;47850;50.274;18.908;2022-09-21T03:43:02;18.90;;;10.90;;
61897;SDS011;47850;50.274;18.908;2022-09-21T03:45:28;14.10;;;8.10;;
61897;SDS011;47850;50.274;18.908;2022-09-21T03:47:58;18.00;;;12.10;;
61897;SDS011;47850;50.274;18.908;2022-09-21T03:50:26;17.80;;;11.70;;
61897;SDS011;47850;50.274;18.908;2022-09-21T03:52:53;18.30;;;12.50;;
61897;SDS011;47850;50.274;18.908;2022-09-21T03:55:20;15.80;;;11.40;;
61897;SDS011;47850;50.274;18.908;2022-09-21T03:57:47;16.30;;;11.70;;
61897;SDS011;47850;50.274;18.908;2022-09-21T04:00:14;15.50;;;9.90;;
61897;SDS011;47850;50.274;18.908;2022-09-21T04:02:40;17.40;;;11.30;;
61897;SDS011;47850;50.274;18.908;2022-09-21T04:05:07;15.40;;;10.60;;
61897;SDS011;47850;50.274;18.908;2022-09-21T04:07:35;15.50;;;9.70;;
61897;SDS011;47850;50.274;18.908;2022-09-21T04:10:03;14.60;;;10.20;;
61897;SDS011;47850;50.274;18.908;2022-09-21T04:12:33;13.40;;;9.80;;
61897;SDS011;47850;50.274;18.908;2022-09-21T04:15:00;15.40;;;9.90;;
61897;SDS011;47850;50.274;18.908;2022-09-21T04:17:27;15.50;;;10.40;;
61897;SDS011;47850;50.274;18.908;2022-09-21T04:19:53;15.70;;;9.50;;
61897;SDS011;47850;50.274;18.908;2022-09-21T04:22:18;12.60;;;7.70;;
61897;SDS011;47850;50.274;18.908;2022-09-21T04:24:44;14.90;;;9.30;;
61897;SDS011;47850;50.274;18.908;2022-09-21T04:27:10;12.70;;;8.40;;
61897;SDS011;47850;50.274;18.908;2022-09-21T04:29:37;12.10;;;9.00;;
61897;SDS011;47850;50.274;18.908;2022-09-21T04:32:03;12.30;;;9.10;;
61897;SDS011;47850;50.274;18.908;2022-09-21T04:34:30;12.20;;;8.50;;
61897;SDS011;47850;50.274;18.908;2022-09-21T04:36:56;14.20;;;8.50;;
61897;SDS011;47850;50.274;18.908;2022-09-21T04:39:23;16.50;;;8.90;;
61897;SDS011;47850;50.274;18.908;2022-09-21T04:41:49;10.80;;;6.70;;
61897;SDS011;47850;50.274;18.908;2022-09-21T04:44:15;15.70;;;10.00;;
61897;SDS011;47850;50.274;18.908;2022-09-21T04:46:45;14.60;;;10.10;;
61897;SDS011;47850;50.274;18.908;2022-09-21T04:49:11;15.60;;;9.90;;
61897;SDS011;47850;50.274;18.908;2022-09-21T04:51:37;16.30;;;10.40;;
61897;SDS011;47850;50.274;18.908;2022-09-21T04:54:03;19.00;;;11.20;;
61897;SDS011;47850;50.274;18.908;2022-09-21T04:56:29;16.80;;;9.70;;
61897;SDS011;47850;50.274;18.908;2022-09-21T04:58:55;19.10;;;11.20;;
61897;SDS011;47850;50.274;18.908;2022-09-21T05:01:21;16.20;;;11.00;;
61897;SDS011;47850;50.274;18.908;2022-09-21T05:03:46;13.80;;;9.80;;
61897;SDS011;47850;50.274;18.908;2022-09-21T05:06:12;17.00;;;9.30;;
61897;SDS011;47850;50.274;18.908;2022-09-21T05:08:39;20.50;;;11.40;;
61897;SDS011;47850;50.274;18.908;2022-09-21T05:11:24;19.10;;;11.10;;
61897;SDS011;47850;50.274;18.908;2022-09-21T05:13:51;19.50;;;10.40;;
61897;SDS011;47850;50.274;18.908;2022-09-21T05:16:17;21.90;;;12.60;;
61897;SDS011;47850;50.274;18.908;2022-09-21T05:18:44;16.00;;;10.70;;
61897;SDS011;47850;50.274;18.908;2022-09-21T05:21:12;15.30;;;10.10;;
61897;SDS011;47850;50.274;18.908;2022-09-21T05:23:38;19.90;;;10.50;;
61897;SDS011;47850;50.274;18.908;2022-09-21T05:26:05;19.40;;;9.90;;
61897;SDS011;47850;50.274;18.908;2022-09-21T05:28:31;14.10;;;9.30;;
61897;SDS011;47850;50.274;18.908;2022-09-21T05:33:29;14.50;;;9.70;;
61897;SDS011;47850;50.274;18.908;2022-09-21T05:36:09;16.90;;;10.10;;
61897;SDS011;47850;50.274;18.908;2022-09-21T05:38:54;18.80;;;10.80;;
61897;SDS011;47850;50.274;18.908;2022-09-21T05:41:21;17.20;;;10.90;;
61897;SDS011;47850;50.274;18.908;2022-09-21T05:43:47;25.30;;;13.40;;
61897;SDS011;47850;50.274;18.908;2022-09-21T05:46:25;18.50;;;10.90;;
61897;SDS011;47850;50.274;18.908;2022-09-21T05:49:05;19.10;;;10.50;;
61897;SDS011;47850;50.274;18.908;2022-09-21T05:51:51;19.30;;;10.60;;
61897;SDS011;47850;50.274;18.908;2022-09-21T05:54:38;20.90;;;9.10;;
61897;SDS011;47850;50.274;18.908;2022-09-21T06:00:08;15.40;;;8.70;;
61897;SDS011;47850;50.274;18.908;2022-09-21T06:05:13;16.50;;;10.40;;
61897;SDS011;47850;50.274;18.908;2022-09-21T06:07:40;17.00;;;10.00;;
61897;SDS011;47850;50.274;18.908;2022-09-21T06:10:06;14.10;;;9.00;;
61897;SDS011;47850;50.274;18.908;2022-09-21T06:12:34;18.90;;;11.00;;
61897;SDS011;47850;50.274;18.908;2022-09-21T06:15:00;17.20;;;10.00;;
61897;SDS011;47850;50.274;18.908;2022-09-21T06:17:25;11.80;;;7.20;;
61897;SDS011;47850;50.274;18.908;2022-09-21T06:19:52;15.70;;;10.70;;
61897;SDS011;47850;50.274;18.908;2022-09-21T06:22:18;13.10;;;8.60;;
61897;SDS011;47850;50.274;18.908;2022-09-21T06:24:44;20.20;;;10.50;;
61897;SDS011;47850;50.274;18.908;2022-09-21T06:27:10;18.90;;;11.00;;
61897;SDS011;47850;50.274;18.908;2022-09-21T06:29:36;17.20;;;10.90;;
61897;SDS011;47850;50.274;18.908;2022-09-21T06:32:02;20.30;;;11.90;;
61897;SDS011;47850;50.274;18.908;2022-09-21T06:34:28;19.60;;;10.30;;
61897;SDS011;47850;50.274;18.908;2022-09-21T06:36:55;16.50;;;10.40;;
61897;SDS011;47850;50.274;18.908;2022-09-21T06:39:21;21.30;;;11.80;;
61897;SDS011;47850;50.274;18.908;2022-09-21T06:41:47;26.20;;;14.10;;
61897;SDS011;47850;50.274;18.908;2022-09-21T06:44:13;25.00;;;12.30;;
61897;SDS011;47850;50.274;18.908;2022-09-21T06:46:39;19.10;;;9.50;;
61897;SDS011;47850;50.274;18.908;2022-09-21T06:49:05;16.00;;;9.60;;
61897;SDS011;47850;50.274;18.908;2022-09-21T06:51:31;16.30;;;9.60;;
61897;SDS011;47850;50.274;18.908;2022-09-21T06:53:57;16.90;;;9.90;;
61897;SDS011;47850;50.274;18.908;2022-09-21T06:56:24;13.60;;;8.60;;
61897;SDS011;47850;50.274;18.908;2022-09-21T06:58:50;18.60;;;10.80;;
61897;SDS011;47850;50.274;18.908;2022-09-21T07:01:17;17.50;;;9.30;;
61897;SDS011;47850;50.274;18.908;2022-09-21T07:03:43;11.10;;;6.90;;
61897;SDS011;47850;50.274;18.908;2022-09-21T07:06:14;16.90;;;9.50;;
61897;SDS011;47850;50.274;18.908;2022-09-21T07:08:42;12.30;;;7.20;;
61897;SDS011;47850;50.274;18.908;2022-09-21T07:11:10;12.90;;;9.10;;
61897;SDS011;47850;50.274;18.908;2022-09-21T07:13:36;17.90;;;10.60;;
61897;SDS011;47850;50.274;18.908;2022-09-21T07:16:03;20.40;;;11.50;;
61897;SDS011;47850;50.274;18.908;2022-09-21T07:18:34;21.70;;;12.30;;
61897;SDS011;47850;50.274;18.908;2022-09-21T07:21:09;17.90;;;11.20;;
61897;SDS011;47850;50.274;18.908;2022-09-21T07:23:36;16.80;;;9.50;;
61897;SDS011;47850;50.274;18.908;2022-09-21T07:26:03;14.40;;;9.30;;
61897;SDS011;47850;50.274;18.908;2022-09-21T07:28:31;15.70;;;9.30;;
61897;SDS011;47850;50.274;18.908;2022-09-21T07:30:58;14.70;;;8.90;;
61897;SDS011;47850;50.274;18.908;2022-09-21T07:33:30;12.90;;;8.00;;
61897;SDS011;47850;50.274;18.908;2022-09-21T07:35:58;13.00;;;7.80;;
61897;SDS011;47850;50.274;18.908;2022-09-21T07:38:25;14.50;;;7.70;;
61897;SDS011;47850;50.274;18.908;2022-09-21T07:40:52;14.90;;;9.30;;
61897;SDS011;47850;50.274;18.908;2022-09-21T07:43:18;12.60;;;8.70;;
61897;SDS011;47850;50.274;18.908;2022-09-21T07:45:50;14.40;;;8.40;;
61897;SDS011;47850;50.274;18.908;2022-09-21T07:48:18;12.60;;;8.10;;
61897;SDS011;47850;50.274;18.908;2022-09-21T07:50:44;13.70;;;8.80;;
61897;SDS011;47850;50.274;18.908;2022-09-21T07:53:09;17.70;;;9.70;;
61897;SDS011;47850;50.274;18.908;2022-09-21T07:55:35;12.90;;;7.80;;
61897;SDS011;47850;50.274;18.908;2022-09-21T07:58:01;13.90;;;8.50;;
61897;SDS011;47850;50.274;18.908;2022-09-21T08:00:45;17.10;;;10.00;;
61897;SDS011;47850;50.274;18.908;2022-09-21T08:03:11;14.30;;;8.40;;
61897;SDS011;47850;50.274;18.908;2022-09-21T08:05:37;14.30;;;7.90;;
61897;SDS011;47850;50.274;18.908;2022-09-21T08:08:03;15.40;;;9.30;;
61897;SDS011;47850;50.274;18.908;2022-09-21T08:10:29;14.10;;;8.90;;
61897;SDS011;47850;50.274;18.908;2022-09-21T08:12:57;15.30;;;9.20;;
61897;SDS011;47850;50.274;18.908;2022-09-21T08:15:23;14.60;;;8.20;;
61897;SDS011;47850;50.274;18.908;2022-09-21T08:17:49;16.30;;;9.70;;
61897;SDS011;47850;50.274;18.908;2022-09-21T08:20:16;15.20;;;9.50;;
61897;SDS011;47850;50.274;18.908;2022-09-21T08:22:43;13.70;;;8.80;;
61897;SDS011;47850;50.274;18.908;2022-09-21T08:25:09;16.00;;;9.00;;
61897;SDS011;47850;50.274;18.908;2022-09-21T08:27:40;15.40;;;8.90;;
61897;SDS011;47850;50.274;18.908;2022-09-21T08:30:07;15.70;;;8.50;;
61897;SDS011;47850;50.274;18.908;2022-09-21T08:32:33;15.10;;;9.60;;
61897;SDS011;47850;50.274;18.908;2022-09-21T08:34:59;13.90;;;8.40;;
61897;SDS011;47850;50.274;18.908;2022-09-21T08:37:25;18.40;;;10.00;;
61897;SDS011;47850;50.274;18.908;2022-09-21T08:39:51;15.70;;;9.30;;
61897;SDS011;47850;50.274;18.908;2022-09-21T08:43:03;14.30;;;8.40;;
61897;SDS011;47850;50.274;18.908;2022-09-21T08:45:15;16.60;;;8.80;;
61897;SDS011;47850;50.274;18.908;2022-09-21T08:47:44;12.60;;;6.80;;
61897;SDS011;47850;50.274;18.908;2022-09-21T08:53:12;11.60;;;6.90;;
61897;SDS011;47850;50.274;18.908;2022-09-21T08:55:42;15.20;;;8.10;;
61897;SDS011;47850;50.274;18.908;2022-09-21T08:58:30;12.50;;;7.50;;
61897;SDS011;47850;50.274;18.908;2022-09-21T09:01:00;13.40;;;7.40;;
61897;SDS011;47850;50.274;18.908;2022-09-21T09:17:14;16.80;;;12.10;;
61897;SDS011;47850;50.274;18.908;2022-09-21T09:19:54;11.40;;;8.90;;
61897;SDS011;47850;50.274;18.908;2022-09-21T09:22:27;11.80;;;7.30;;
61897;SDS011;47850;50.274;18.908;2022-09-21T09:25:02;13.00;;;8.20;;
61897;SDS011;47850;50.274;18.908;2022-09-21T09:27:37;12.80;;;8.20;;
61897;SDS011;47850;50.274;18.908;2022-09-21T09:30:17;12.40;;;8.00;;
61897;SDS011;47850;50.274;18.908;2022-09-21T09:32:58;11.50;;;7.30;;
61897;SDS011;47850;50.274;18.908;2022-09-21T09:35:45;11.40;;;7.30;;
61897;SDS011;47850;50.274;18.908;2022-09-21T09:43:39;11.30;;;6.30;;
61897;SDS011;47850;50.274;18.908;2022-09-21T09:46:28;9.80;;;6.40;;
61897;SDS011;47850;50.274;18.908;2022-09-21T09:49:37;17.50;;;10.10;;
61897;SDS011;47850;50.274;18.908;2022-09-21T09:52:16;6.70;;;3.90;;
61897;SDS011;47850;50.274;18.908;2022-09-21T09:54:42;11.00;;;8.10;;
61897;SDS011;47850;50.274;18.908;2022-09-21T09:57:11;7.80;;;4.60;;
61897;SDS011;47850;50.274;18.908;2022-09-21T09:59:38;11.30;;;5.70;;
61897;SDS011;47850;50.274;18.908;2022-09-21T10:07:34;13.20;;;9.00;;
61897;SDS011;47850;50.274;18.908;2022-09-21T10:13:17;8.30;;;5.60;;
61897;SDS011;47850;50.274;18.908;2022-09-21T10:15:59;12.80;;;8.20;;
61897;SDS011;47850;50.274;18.908;2022-09-21T10:18:32;15.20;;;10.10;;
61897;SDS011;47850;50.274;18.908;2022-09-21T10:21:06;20.00;;;11.40;;
61897;SDS011;47850;50.274;18.908;2022-09-21T10:23:33;10.10;;;6.30;;
61897;SDS011;47850;50.274;18.908;2022-09-21T10:26:01;7.10;;;4.70;;
61897;SDS011;47850;50.274;18.908;2022-09-21T10:28:30;6.00;;;3.60;;
61897;SDS011;47850;50.274;18.908;2022-09-21T10:31:11;6.90;;;3.00;;
61897;SDS011;47850;50.274;18.908;2022-09-21T10:33:46;3.70;;;2.60;;
61897;SDS011;47850;50.274;18.908;2022-09-21T10:36:26;9.80;;;4.00;;
61897;SDS011;47850;50.274;18.908;2022-09-21T10:38:54;6.50;;;3.50;;
61897;SDS011;47850;50.274;18.908;2022-09-21T10:41:20;6.40;;;3.90;;
61897;SDS011;47850;50.274;18.908;2022-09-21T10:43:47;8.60;;;4.00;;
61897;SDS011;47850;50.274;18.908;2022-09-21T10:46:15;11.00;;;4.80;;
61897;SDS011;47850;50.274;18.908;2022-09-21T10:48:43;7.50;;;3.80;;
61897;SDS011;47850;50.274;18.908;2022-09-21T10:51:18;6.20;;;3.70;;
61897;SDS011;47850;50.274;18.908;2022-09-21T10:53:50;4.70;;;3.20;;
61897;SDS011;47850;50.274;18.908;2022-09-21T10:56:16;7.00;;;3.70;;
61897;SDS011;47850;50.274;18.908;2022-09-21T11:01:51;8.10;;;3.60;;
61897;SDS011;47850;50.274;18.908;2022-09-21T11:07:18;7.60;;;4.40;;
61897;SDS011;47850;50.274;18.908;2022-09-21T11:09:47;11.00;;;5.30;;
61897;SDS011;47850;50.274;18.908;2022-09-21T11:12:30;8.00;;;4.50;;
61897;SDS011;47850;50.274;18.908;2022-09-21T11:15:10;8.20;;;4.20;;
61897;SDS011;47850;50.274;18.908;2022-09-21T11:17:44;12.90;;;5.70;;
61897;SDS011;47850;50.274;18.908;2022-09-21T11:28:58;5.60;;;3.30;;
61897;SDS011;47850;50.274;18.908;2022-09-21T11:34:36;4.70;;;3.50;;
61897;SDS011;47850;50.274;18.908;2022-09-21T11:37:25;5.30;;;3.40;;
61897;SDS011;47850;50.274;18.908;2022-09-21T11:40:06;8.20;;;4.70;;
61897;SDS011;47850;50.274;18.908;2022-09-21T11:45:32;8.10;;;4.20;;
61897;SDS011;47850;50.274;18.908;2022-09-21T11:57:06;6.60;;;3.30;;
61897;SDS011;47850;50.274;18.908;2022-09-21T12:05:46;7.70;;;3.80;;
61897;SDS011;47850;50.274;18.908;2022-09-21T12:13:59;6.50;;;2.90;;
61897;SDS011;47850;50.274;18.908;2022-09-21T12:22:15;5.30;;;3.40;;
61897;SDS011;47850;50.274;18.908;2022-09-21T12:24:49;5.60;;;3.70;;
61897;SDS011;47850;50.274;18.908;2022-09-21T12:29:57;7.90;;;3.80;;
61897;SDS011;47850;50.274;18.908;2022-09-21T12:32:51;5.50;;;3.00;;
61897;SDS011;47850;50.274;18.908;2022-09-21T12:35:36;7.00;;;3.40;;
61897;SDS011;47850;50.274;18.908;2022-09-21T12:38:27;7.00;;;3.20;;
61897;SDS011;47850;50.274;18.908;2022-09-21T12:41:10;7.50;;;3.60;;
61897;SDS011;47850;50.274;18.908;2022-09-21T12:46:39;6.40;;;3.70;;
61897;SDS011;47850;50.274;18.908;2022-09-21T12:49:16;8.00;;;4.70;;
61897;SDS011;47850;50.274;18.908;2022-09-21T12:51:51;7.70;;;4.30;;
61897;SDS011;47850;50.274;18.908;2022-09-21T13:12:54;4.20;;;2.60;;
61897;SDS011;47850;50.274;18.908;2022-09-21T13:15:30;9.40;;;6.60;;
61897;SDS011;47850;50.274;18.908;2022-09-21T13:18:01;6.50;;;3.00;;
61897;SDS011;47850;50.274;18.908;2022-09-21T13:20:36;5.10;;;2.90;;
61897;SDS011;47850;50.274;18.908;2022-09-21T13:23:04;4.30;;;2.50;;
61897;SDS011;47850;50.274;18.908;2022-09-21T13:25:38;3.80;;;2.50;;
61897;SDS011;47850;50.274;18.908;2022-09-21T13:49:12;3.50;;;1.90;;
61897;SDS011;47850;50.274;18.908;2022-09-21T13:51:54;4.20;;;2.40;;
61897;SDS011;47850;50.274;18.908;2022-09-21T13:54:25;3.20;;;2.00;;
61897;SDS011;47850;50.274;18.908;2022-09-21T13:56:59;7.50;;;2.70;;
61897;SDS011;47850;50.274;18.908;2022-09-21T13:59:33;6.00;;;2.40;;
61897;SDS011;47850;50.274;18.908;2022-09-21T14:02:00;3.60;;;2.20;;
61897;SDS011;47850;50.274;18.908;2022-09-21T14:04:29;4.40;;;2.10;;
61897;SDS011;47850;50.274;18.908;2022-09-21T14:07:02;4.60;;;2.30;;
61897;SDS011;47850;50.274;18.908;2022-09-21T14:09:40;6.50;;;3.80;;
61897;SDS011;47850;50.274;18.908;2022-09-21T14:12:20;6.50;;;3.70;;
61897;SDS011;47850;50.274;18.908;2022-09-21T14:15:10;11.40;;;4.90;;
61897;SDS011;47850;50.274;18.908;2022-09-21T14:20:33;8.50;;;4.00;;
61897;SDS011;47850;50.274;18.908;2022-09-21T14:25:47;10.10;;;4.20;;
61897;SDS011;47850;50.274;18.908;2022-09-21T14:28:25;6.20;;;3.50;;
61897;SDS011;47850;50.274;18.908;2022-09-21T14:31:00;8.00;;;4.30;;
61897;SDS011;47850;50.274;18.908;2022-09-21T14:33:34;6.10;;;3.80;;
61897;SDS011;47850;50.274;18.908;2022-09-21T14:36:07;4.20;;;2.70;;
61897;SDS011;47850;50.274;18.908;2022-09-21T14:41:18;4.30;;;2.10;;
61897;SDS011;47850;50.274;18.908;2022-09-21T14:43:48;12.50;;;7.80;;
61897;SDS011;47850;50.274;18.908;2022-09-21T14:57:21;6.00;;;2.80;;
61897;SDS011;47850;50.274;18.908;2022-09-21T15:05:52;8.10;;;3.10;;
61897;SDS011;47850;50.274;18.908;2022-09-21T15:11:52;5.40;;;2.60;;
61897;SDS011;47850;50.274;18.908;2022-09-21T15:16:58;6.80;;;3.60;;
61897;SDS011;47850;50.274;18.908;2022-09-21T15:19:26;8.70;;;3.40;;
61897;SDS011;47850;50.274;18.908;2022-09-21T15:21:53;8.90;;;4.30;;
61897;SDS011;47850;50.274;18.908;2022-09-21T15:24:28;9.60;;;5.30;;
61897;SDS011;47850;50.274;18.908;2022-09-21T15:27:05;4.40;;;2.60;;
61897;SDS011;47850;50.274;18.908;2022-09-21T15:29:37;11.30;;;3.80;;
61897;SDS011;47850;50.274;18.908;2022-09-21T15:32:04;7.40;;;3.40;;
61897;SDS011;47850;50.274;18.908;2022-09-21T15:34:31;4.50;;;2.60;;
61897;SDS011;47850;50.274;18.908;2022-09-21T15:37:08;4.80;;;2.90;;
61897;SDS011;47850;50.274;18.908;2022-09-21T15:39:40;11.90;;;5.30;;
61897;SDS011;47850;50.274;18.908;2022-09-21T15:44:32;8.70;;;4.20;;
61897;SDS011;47850;50.274;18.908;2022-09-21T15:47:01;8.90;;;4.90;;
61897;SDS011;47850;50.274;18.908;2022-09-21T15:49:28;6.40;;;3.10;;
61897;SDS011;47850;50.274;18.908;2022-09-21T15:51:57;5.00;;;3.20;;
61897;SDS011;47850;50.274;18.908;2022-09-21T15:57:23;7.00;;;3.80;;
61897;SDS011;47850;50.274;18.908;2022-09-21T16:00:06;9.70;;;3.90;;
61897;SDS011;47850;50.274;18.908;2022-09-21T16:05:51;8.20;;;4.60;;
61897;SDS011;47850;50.274;18.908;2022-09-21T16:13:44;9.00;;;4.90;;
61897;SDS011;47850;50.274;18.908;2022-09-21T16:16:29;9.50;;;4.80;;
61897;SDS011;47850;50.274;18.908;2022-09-21T16:18:56;9.50;;;4.90;;
61897;SDS011;47850;50.274;18.908;2022-09-21T16:21:26;12.10;;;5.50;;
61897;SDS011;47850;50.274;18.908;2022-09-21T16:23:54;11.60;;;6.10;;
61897;SDS011;47850;50.274;18.908;2022-09-21T16:28:57;12.50;;;6.40;;
61897;SDS011;47850;50.274;18.908;2022-09-21T16:31:41;14.60;;;6.90;;
61897;SDS011;47850;50.274;18.908;2022-09-21T16:37:01;19.30;;;8.10;;
61897;SDS011;47850;50.274;18.908;2022-09-21T16:39:52;16.70;;;6.30;;
61897;SDS011;47850;50.274;18.908;2022-09-21T16:44:46;15.10;;;6.60;;
61897;SDS011;47850;50.274;18.908;2022-09-21T16:47:13;17.50;;;7.00;;
61897;SDS011;47850;50.274;18.908;2022-09-21T16:49:53;15.10;;;7.10;;
61897;SDS011;47850;50.274;18.908;2022-09-21T16:52:22;18.50;;;6.80;;
61897;SDS011;47850;50.274;18.908;2022-09-21T16:54:49;12.20;;;6.10;;
61897;SDS011;47850;50.274;18.908;2022-09-21T16:57:17;14.70;;;7.10;;
61897;SDS011;47850;50.274;18.908;2022-09-21T16:59:43;14.70;;;6.90;;
61897;SDS011;47850;50.274;18.908;2022-09-21T17:02:09;13.60;;;7.40;;
61897;SDS011;47850;50.274;18.908;2022-09-21T17:04:38;13.00;;;7.30;;
61897;SDS011;47850;50.274;18.908;2022-09-21T17:07:04;14.30;;;8.20;;
61897;SDS011;47850;50.274;18.908;2022-09-21T17:09:35;17.20;;;8.70;;
61897;SDS011;47850;50.274;18.908;2022-09-21T17:12:04;31.60;;;13.50;;
61897;SDS011;47850;50.274;18.908;2022-09-21T17:14:33;31.90;;;13.00;;
61897;SDS011;47850;50.274;18.908;2022-09-21T17:17:02;26.80;;;11.80;;
61897;SDS011;47850;50.274;18.908;2022-09-21T17:19:41;35.60;;;14.70;;
61897;SDS011;47850;50.274;18.908;2022-09-21T17:22:09;30.30;;;13.90;;
61897;SDS011;47850;50.274;18.908;2022-09-21T17:24:42;29.60;;;12.00;;
61897;SDS011;47850;50.274;18.908;2022-09-21T17:27:12;26.10;;;11.70;;
61897;SDS011;47850;50.274;18.908;2022-09-21T17:29:42;28.30;;;11.60;;
61897;SDS011;47850;50.274;18.908;2022-09-21T17:32:14;18.60;;;8.60;;
61897;SDS011;47850;50.274;18.908;2022-09-21T17:34:44;16.60;;;7.70;;
61897;SDS011;47850;50.274;18.908;2022-09-21T17:37:11;16.00;;;7.30;;
61897;SDS011;47850;50.274;18.908;2022-09-21T17:39:37;17.50;;;7.40;;
61897;SDS011;47850;50.274;18.908;2022-09-21T17:42:21;17.40;;;7.90;;
61897;SDS011;47850;50.274;18.908;2022-09-21T17:47:46;13.90;;;6.60;;
61897;SDS011;47850;50.274;18.908;2022-09-21T17:50:19;14.80;;;7.60;;
61897;SDS011;47850;50.274;18.908;2022-09-21T17:52:48;16.90;;;6.90;;
61897;SDS011;47850;50.274;18.908;2022-09-21T17:55:33;12.10;;;6.80;;
61897;SDS011;47850;50.274;18.908;2022-09-21T18:00:59;14.50;;;7.00;;
61897;SDS011;47850;50.274;18.908;2022-09-21T18:03:27;14.40;;;7.00;;
61897;SDS011;47850;50.274;18.908;2022-09-21T18:05:55;12.60;;;6.60;;
61897;SDS011;47850;50.274;18.908;2022-09-21T18:08:25;11.70;;;6.80;;
61897;SDS011;47850;50.274;18.908;2022-09-21T18:11:00;12.00;;;6.70;;
61897;SDS011;47850;50.274;18.908;2022-09-21T18:16:34;12.60;;;6.90;;
61897;SDS011;47850;50.274;18.908;2022-09-21T18:25:27;11.20;;;6.30;;
61897;SDS011;47850;50.274;18.908;2022-09-21T18:27:57;12.50;;;6.90;;
61897;SDS011;47850;50.274;18.908;2022-09-21T18:33:42;12.80;;;6.60;;